sensor_id;sensor_type;location;lat;lon;timestamp;temperature;humidity
983;DHT22;480;48.124;11.578;2023-04-29T00:02:11;12.00;99.90
983;DHT22;480;48.124;11.578;2023-04-29T00:04:40;12.10;99.90
983;DHT22;480;48.124;11.578;2023-04-29T00:07:07;12.20;99.90
983;DHT22;480;48.124;11.578;2023-04-29T00:09:34;12.20;99.90
983;DHT22;480;48.124;11.578;2023-04-29T00:12:02;12.10;99.90
983;DHT22;480;48.124;11.578;2023-04-29T00:14:29;12.10;99.90
983;DHT22;480;48.124;11.578;2023-04-29T00:16:56;12.10;99.90
983;DHT22;480;48.124;11.578;2023-04-29T00:19:23;12.10;99.90
983;DHT22;480;48.124;11.578;2023-04-29T00:21:52;12.00;99.90
983;DHT22;480;48.124;11.578;2023-04-29T00:24:19;12.10;99.90
983;DHT22;480;48.124;11.578;2023-04-29T00:26:46;12.10;99.90
983;DHT22;480;48.124;11.578;2023-04-29T00:29:13;12.00;99.90
983;DHT22;480;48.124;11.578;2023-04-29T00:31:40;12.00;99.90
983;DHT22;480;48.124;11.578;2023-04-29T00:34:07;12.00;99.90
983;DHT22;480;48.124;11.578;2023-04-29T00:36:34;12.00;99.90
983;DHT22;480;48.124;11.578;2023-04-29T00:39:02;12.10;99.90
983;DHT22;480;48.124;11.578;2023-04-29T00:41:29;12.20;99.90
983;DHT22;480;48.124;11.578;2023-04-29T00:43:56;12.20;99.90
983;DHT22;480;48.124;11.578;2023-04-29T00:46:23;12.10;99.90
983;DHT22;480;48.124;11.578;2023-04-29T00:48:50;12.20;99.90
983;DHT22;480;48.124;11.578;2023-04-29T00:51:17;12.20;99.90
983;DHT22;480;48.124;11.578;2023-04-29T00:53:44;12.20;99.90
983;DHT22;480;48.124;11.578;2023-04-29T00:56:13;12.20;99.90
983;DHT22;480;48.124;11.578;2023-04-29T00:58:41;12.20;99.90
983;DHT22;480;48.124;11.578;2023-04-29T01:01:14;12.30;99.90
983;DHT22;480;48.124;11.578;2023-04-29T01:03:42;12.30;99.90
983;DHT22;480;48.124;11.578;2023-04-29T01:06:15;12.30;99.90
983;DHT22;480;48.124;11.578;2023-04-29T01:08:55;12.20;99.90
983;DHT22;480;48.124;11.578;2023-04-29T01:11:33;12.10;99.90
983;DHT22;480;48.124;11.578;2023-04-29T01:14:03;12.10;99.90
983;DHT22;480;48.124;11.578;2023-04-29T01:16:36;12.00;99.90
983;DHT22;480;48.124;11.578;2023-04-29T01:19:14;12.00;99.90
983;DHT22;480;48.124;11.578;2023-04-29T01:21:45;12.00;99.90
983;DHT22;480;48.124;11.578;2023-04-29T01:24:15;12.00;99.90
983;DHT22;480;48.124;11.578;2023-04-29T01:26:48;12.00;99.90
983;DHT22;480;48.124;11.578;2023-04-29T01:29:21;12.10;99.90
983;DHT22;480;48.124;11.578;2023-04-29T01:32:00;12.00;99.90
983;DHT22;480;48.124;11.578;2023-04-29T01:34:35;11.90;99.90
983;DHT22;480;48.124;11.578;2023-04-29T01:37:13;11.80;99.90
983;DHT22;480;48.124;11.578;2023-04-29T01:39:45;11.80;99.90
983;DHT22;480;48.124;11.578;2023-04-29T01:42:23;11.90;99.90
983;DHT22;480;48.124;11.578;2023-04-29T01:44:54;12.00;99.90
983;DHT22;480;48.124;11.578;2023-04-29T01:47:23;12.00;99.90
983;DHT22;480;48.124;11.578;2023-04-29T01:49:50;12.10;99.90
983;DHT22;480;48.124;11.578;2023-04-29T01:52:17;12.20;99.90
983;DHT22;480;48.124;11.578;2023-04-29T01:54:46;12.10;99.90
983;DHT22;480;48.124;11.578;2023-04-29T01:57:13;12.20;99.90
983;DHT22;480;48.124;11.578;2023-04-29T01:59:40;12.30;99.90
983;DHT22;480;48.124;11.578;2023-04-29T02:02:07;12.30;99.90
983;DHT22;480;48.124;11.578;2023-04-29T02:04:34;12.30;99.90
983;DHT22;480;48.124;11.578;2023-04-29T02:07:01;12.30;99.90
983;DHT22;480;48.124;11.578;2023-04-29T02:09:29;12.30;99.90
983;DHT22;480;48.124;11.578;2023-04-29T02:11:57;12.20;99.90
983;DHT22;480;48.124;11.578;2023-04-29T02:14:24;12.20;99.90
983;DHT22;480;48.124;11.578;2023-04-29T02:16:51;12.30;99.90
983;DHT22;480;48.124;11.578;2023-04-29T02:19:18;12.30;99.90
983;DHT22;480;48.124;11.578;2023-04-29T02:21:45;12.40;99.90
983;DHT22;480;48.124;11.578;2023-04-29T02:24:12;12.50;99.90
983;DHT22;480;48.124;11.578;2023-04-29T02:26:39;12.50;99.90
983;DHT22;480;48.124;11.578;2023-04-29T02:29:07;12.60;99.90
983;DHT22;480;48.124;11.578;2023-04-29T02:31:34;12.60;99.90
983;DHT22;480;48.124;11.578;2023-04-29T02:34:01;12.60;99.90
983;DHT22;480;48.124;11.578;2023-04-29T02:36:29;12.60;99.90
983;DHT22;480;48.124;11.578;2023-04-29T02:38:56;12.40;99.90
983;DHT22;480;48.124;11.578;2023-04-29T02:41:25;12.40;99.90
983;DHT22;480;48.124;11.578;2023-04-29T02:43:52;12.50;99.90
983;DHT22;480;48.124;11.578;2023-04-29T02:46:20;12.40;99.90
983;DHT22;480;48.124;11.578;2023-04-29T02:48:47;12.40;99.90
983;DHT22;480;48.124;11.578;2023-04-29T02:51:14;12.30;99.90
983;DHT22;480;48.124;11.578;2023-04-29T02:53:41;12.20;99.90
983;DHT22;480;48.124;11.578;2023-04-29T02:56:08;12.20;99.90
983;DHT22;480;48.124;11.578;2023-04-29T02:58:36;12.20;99.90
983;DHT22;480;48.124;11.578;2023-04-29T03:01:03;12.10;99.90
983;DHT22;480;48.124;11.578;2023-04-29T03:03:31;12.20;99.90
983;DHT22;480;48.124;11.578;2023-04-29T03:05:59;12.20;99.90
983;DHT22;480;48.124;11.578;2023-04-29T03:08:25;12.20;99.90
983;DHT22;480;48.124;11.578;2023-04-29T03:10:52;12.30;99.90
983;DHT22;480;48.124;11.578;2023-04-29T03:13:19;12.30;99.90
983;DHT22;480;48.124;11.578;2023-04-29T03:15:46;12.50;99.90
983;DHT22;480;48.124;11.578;2023-04-29T03:18:13;12.60;99.90
983;DHT22;480;48.124;11.578;2023-04-29T03:20:42;12.60;99.90
983;DHT22;480;48.124;11.578;2023-04-29T03:23:09;12.70;99.90
983;DHT22;480;48.124;11.578;2023-04-29T03:25:36;12.70;99.90
983;DHT22;480;48.124;11.578;2023-04-29T03:28:03;12.70;99.90
983;DHT22;480;48.124;11.578;2023-04-29T03:30:30;12.70;99.90
983;DHT22;480;48.124;11.578;2023-04-29T03:32:57;12.70;99.90
983;DHT22;480;48.124;11.578;2023-04-29T03:35:24;12.70;99.90
983;DHT22;480;48.124;11.578;2023-04-29T03:37:53;12.70;99.90
983;DHT22;480;48.124;11.578;2023-04-29T03:40:20;12.70;99.90
983;DHT22;480;48.124;11.578;2023-04-29T03:42:47;12.80;99.90
983;DHT22;480;48.124;11.578;2023-04-29T03:45:14;12.80;99.90
983;DHT22;480;48.124;11.578;2023-04-29T03:47:42;12.80;99.90
983;DHT22;480;48.124;11.578;2023-04-29T03:50:09;12.80;99.90
983;DHT22;480;48.124;11.578;2023-04-29T03:52:36;12.80;99.90
983;DHT22;480;48.124;11.578;2023-04-29T03:55:05;12.80;99.90
983;DHT22;480;48.124;11.578;2023-04-29T03:57:32;12.80;99.90
983;DHT22;480;48.124;11.578;2023-04-29T03:59:59;12.80;99.90
983;DHT22;480;48.124;11.578;2023-04-29T04:02:26;12.80;99.90
983;DHT22;480;48.124;11.578;2023-04-29T04:04:53;12.80;99.90
983;DHT22;480;48.124;11.578;2023-04-29T04:07:20;12.80;99.90
983;DHT22;480;48.124;11.578;2023-04-29T04:09:47;12.80;99.90
983;DHT22;480;48.124;11.578;2023-04-29T04:12:15;12.80;99.90
983;DHT22;480;48.124;11.578;2023-04-29T04:14:42;12.80;99.90
983;DHT22;480;48.124;11.578;2023-04-29T04:17:09;12.80;99.90
983;DHT22;480;48.124;11.578;2023-04-29T04:19:36;12.80;99.90
983;DHT22;480;48.124;11.578;2023-04-29T04:22:03;12.80;99.90
983;DHT22;480;48.124;11.578;2023-04-29T04:24:30;12.90;99.90
983;DHT22;480;48.124;11.578;2023-04-29T04:26:57;12.90;99.90
983;DHT22;480;48.124;11.578;2023-04-29T04:29:26;12.90;99.90
983;DHT22;480;48.124;11.578;2023-04-29T04:31:52;12.90;99.90
983;DHT22;480;48.124;11.578;2023-04-29T04:34:20;12.90;99.90
983;DHT22;480;48.124;11.578;2023-04-29T04:36:47;12.90;99.90
983;DHT22;480;48.124;11.578;2023-04-29T04:39:14;13.00;99.90
983;DHT22;480;48.124;11.578;2023-04-29T04:41:41;13.00;99.90
983;DHT22;480;48.124;11.578;2023-04-29T04:44:07;12.90;99.90
983;DHT22;480;48.124;11.578;2023-04-29T04:46:36;13.00;99.90
983;DHT22;480;48.124;11.578;2023-04-29T04:49:03;13.00;99.90
983;DHT22;480;48.124;11.578;2023-04-29T04:51:30;13.00;99.90
983;DHT22;480;48.124;11.578;2023-04-29T04:53:57;13.10;99.90
983;DHT22;480;48.124;11.578;2023-04-29T04:56:24;13.10;99.90
983;DHT22;480;48.124;11.578;2023-04-29T04:58:51;13.20;99.90
983;DHT22;480;48.124;11.578;2023-04-29T05:01:18;13.20;99.90
983;DHT22;480;48.124;11.578;2023-04-29T05:03:47;13.30;99.90
983;DHT22;480;48.124;11.578;2023-04-29T05:06:14;13.30;99.90
983;DHT22;480;48.124;11.578;2023-04-29T05:08:41;13.30;99.90
983;DHT22;480;48.124;11.578;2023-04-29T05:11:15;13.30;99.90
983;DHT22;480;48.124;11.578;2023-04-29T05:13:42;13.30;99.90
983;DHT22;480;48.124;11.578;2023-04-29T05:16:09;13.40;99.90
983;DHT22;480;48.124;11.578;2023-04-29T05:18:36;13.40;99.90
983;DHT22;480;48.124;11.578;2023-04-29T05:21:04;13.50;99.90
983;DHT22;480;48.124;11.578;2023-04-29T05:23:32;13.50;99.90
983;DHT22;480;48.124;11.578;2023-04-29T05:25:59;13.50;99.90
983;DHT22;480;48.124;11.578;2023-04-29T05:28:26;13.50;99.90
983;DHT22;480;48.124;11.578;2023-04-29T05:30:53;13.40;99.90
983;DHT22;480;48.124;11.578;2023-04-29T05:33:20;13.40;99.90
983;DHT22;480;48.124;11.578;2023-04-29T05:35:47;13.50;99.90
983;DHT22;480;48.124;11.578;2023-04-29T05:38:15;13.60;99.90
983;DHT22;480;48.124;11.578;2023-04-29T05:40:42;13.60;99.90
983;DHT22;480;48.124;11.578;2023-04-29T05:43:09;13.70;99.90
983;DHT22;480;48.124;11.578;2023-04-29T05:45:37;13.70;99.90
983;DHT22;480;48.124;11.578;2023-04-29T05:48:04;13.70;99.90
983;DHT22;480;48.124;11.578;2023-04-29T05:50:31;13.60;99.90
983;DHT22;480;48.124;11.578;2023-04-29T05:52:58;13.60;99.90
983;DHT22;480;48.124;11.578;2023-04-29T05:55:26;13.60;99.90
983;DHT22;480;48.124;11.578;2023-04-29T05:57:53;13.60;99.90
983;DHT22;480;48.124;11.578;2023-04-29T06:00:20;13.50;99.90
983;DHT22;480;48.124;11.578;2023-04-29T06:02:48;13.50;99.90
983;DHT22;480;48.124;11.578;2023-04-29T06:05:15;13.40;99.90
983;DHT22;480;48.124;11.578;2023-04-29T06:07:42;13.40;99.90
983;DHT22;480;48.124;11.578;2023-04-29T06:10:09;13.40;99.90
983;DHT22;480;48.124;11.578;2023-04-29T06:12:38;13.40;99.90
983;DHT22;480;48.124;11.578;2023-04-29T06:15:06;13.50;99.90
983;DHT22;480;48.124;11.578;2023-04-29T06:17:33;13.40;99.90
983;DHT22;480;48.124;11.578;2023-04-29T06:20:00;13.50;99.90
983;DHT22;480;48.124;11.578;2023-04-29T06:22:29;13.50;99.90
983;DHT22;480;48.124;11.578;2023-04-29T06:24:56;13.50;99.90
983;DHT22;480;48.124;11.578;2023-04-29T06:27:23;13.60;99.90
983;DHT22;480;48.124;11.578;2023-04-29T06:29:51;13.50;99.90
983;DHT22;480;48.124;11.578;2023-04-29T06:32:18;13.60;99.90
983;DHT22;480;48.124;11.578;2023-04-29T06:34:45;13.70;99.90
983;DHT22;480;48.124;11.578;2023-04-29T06:37:12;13.80;99.90
983;DHT22;480;48.124;11.578;2023-04-29T06:39:39;13.80;99.90
983;DHT22;480;48.124;11.578;2023-04-29T06:42:06;13.90;99.90
983;DHT22;480;48.124;11.578;2023-04-29T06:44:33;13.90;99.90
983;DHT22;480;48.124;11.578;2023-04-29T06:47:01;13.90;99.90
983;DHT22;480;48.124;11.578;2023-04-29T06:49:28;14.00;99.90
983;DHT22;480;48.124;11.578;2023-04-29T06:51:55;14.00;99.90
983;DHT22;480;48.124;11.578;2023-04-29T06:54:22;13.90;99.90
983;DHT22;480;48.124;11.578;2023-04-29T06:56:49;13.90;99.90
983;DHT22;480;48.124;11.578;2023-04-29T06:59:16;14.10;99.90
983;DHT22;480;48.124;11.578;2023-04-29T07:01:43;14.10;99.90
983;DHT22;480;48.124;11.578;2023-04-29T07:04:11;14.10;99.90
983;DHT22;480;48.124;11.578;2023-04-29T07:06:38;14.20;99.90
983;DHT22;480;48.124;11.578;2023-04-29T07:09:05;14.20;99.90
983;DHT22;480;48.124;11.578;2023-04-29T07:11:32;14.20;99.90
983;DHT22;480;48.124;11.578;2023-04-29T07:13:59;14.40;99.90
983;DHT22;480;48.124;11.578;2023-04-29T07:16:26;14.50;99.90
983;DHT22;480;48.124;11.578;2023-04-29T07:18:53;14.50;99.90
983;DHT22;480;48.124;11.578;2023-04-29T07:21:21;14.80;99.90
983;DHT22;480;48.124;11.578;2023-04-29T07:23:48;14.80;99.90
983;DHT22;480;48.124;11.578;2023-04-29T07:26:16;14.80;99.90
983;DHT22;480;48.124;11.578;2023-04-29T07:28:43;14.80;99.90
983;DHT22;480;48.124;11.578;2023-04-29T07:31:11;14.90;99.90
983;DHT22;480;48.124;11.578;2023-04-29T07:33:38;15.00;99.90
983;DHT22;480;48.124;11.578;2023-04-29T07:36:06;15.00;99.90
983;DHT22;480;48.124;11.578;2023-04-29T07:38:34;15.00;99.90
983;DHT22;480;48.124;11.578;2023-04-29T07:41:02;15.10;99.90
983;DHT22;480;48.124;11.578;2023-04-29T07:43:29;15.30;99.90
983;DHT22;480;48.124;11.578;2023-04-29T07:45:56;15.40;99.90
983;DHT22;480;48.124;11.578;2023-04-29T07:48:23;15.50;99.90
983;DHT22;480;48.124;11.578;2023-04-29T07:50:50;15.60;99.90
983;DHT22;480;48.124;11.578;2023-04-29T07:53:17;15.70;99.90
983;DHT22;480;48.124;11.578;2023-04-29T07:55:46;15.70;99.90
983;DHT22;480;48.124;11.578;2023-04-29T07:58:13;15.70;99.90
983;DHT22;480;48.124;11.578;2023-04-29T08:00:40;15.90;99.90
983;DHT22;480;48.124;11.578;2023-04-29T08:03:07;16.10;99.90
983;DHT22;480;48.124;11.578;2023-04-29T08:05:34;16.30;99.90
983;DHT22;480;48.124;11.578;2023-04-29T08:08:01;16.40;99.90
983;DHT22;480;48.124;11.578;2023-04-29T08:10:28;16.40;99.90
983;DHT22;480;48.124;11.578;2023-04-29T08:12:57;16.50;99.90
983;DHT22;480;48.124;11.578;2023-04-29T08:15:24;16.60;99.90
983;DHT22;480;48.124;11.578;2023-04-29T08:17:51;16.60;99.90
983;DHT22;480;48.124;11.578;2023-04-29T08:20:18;16.50;99.90
983;DHT22;480;48.124;11.578;2023-04-29T08:22:45;16.50;99.90
983;DHT22;480;48.124;11.578;2023-04-29T08:25:12;16.50;99.90
983;DHT22;480;48.124;11.578;2023-04-29T08:27:39;16.40;99.90
983;DHT22;480;48.124;11.578;2023-04-29T08:30:10;16.30;99.90
983;DHT22;480;48.124;11.578;2023-04-29T08:32:38;16.10;99.90
983;DHT22;480;48.124;11.578;2023-04-29T08:35:12;16.00;99.90
983;DHT22;480;48.124;11.578;2023-04-29T08:37:39;15.90;99.90
983;DHT22;480;48.124;11.578;2023-04-29T08:40:08;15.80;99.90
983;DHT22;480;48.124;11.578;2023-04-29T08:42:36;15.80;99.90
983;DHT22;480;48.124;11.578;2023-04-29T08:45:04;15.70;99.90
983;DHT22;480;48.124;11.578;2023-04-29T08:47:36;15.80;99.90
983;DHT22;480;48.124;11.578;2023-04-29T08:50:08;16.00;99.90
983;DHT22;480;48.124;11.578;2023-04-29T08:52:35;16.30;99.90
983;DHT22;480;48.124;11.578;2023-04-29T08:55:02;16.60;99.90
983;DHT22;480;48.124;11.578;2023-04-29T08:57:34;16.70;99.90
983;DHT22;480;48.124;11.578;2023-04-29T09:00:06;17.00;99.90
983;DHT22;480;48.124;11.578;2023-04-29T09:02:40;17.10;99.90
983;DHT22;480;48.124;11.578;2023-04-29T09:05:11;17.40;99.90
983;DHT22;480;48.124;11.578;2023-04-29T09:07:39;17.70;99.90
983;DHT22;480;48.124;11.578;2023-04-29T09:10:09;17.70;99.90
983;DHT22;480;48.124;11.578;2023-04-29T09:12:37;17.70;99.90
983;DHT22;480;48.124;11.578;2023-04-29T09:15:04;17.70;99.90
983;DHT22;480;48.124;11.578;2023-04-29T09:17:40;17.60;99.90
983;DHT22;480;48.124;11.578;2023-04-29T09:20:25;17.30;99.90
983;DHT22;480;48.124;11.578;2023-04-29T09:22:53;17.00;99.90
983;DHT22;480;48.124;11.578;2023-04-29T09:25:21;17.00;99.90
983;DHT22;480;48.124;11.578;2023-04-29T09:27:48;16.80;99.90
983;DHT22;480;48.124;11.578;2023-04-29T09:30:17;16.80;99.90
983;DHT22;480;48.124;11.578;2023-04-29T09:32:45;16.80;99.90
983;DHT22;480;48.124;11.578;2023-04-29T09:35:29;16.90;99.90
983;DHT22;480;48.124;11.578;2023-04-29T09:38:09;17.00;99.90
983;DHT22;480;48.124;11.578;2023-04-29T09:40:37;17.00;99.90
983;DHT22;480;48.124;11.578;2023-04-29T09:43:12;17.00;99.90
983;DHT22;480;48.124;11.578;2023-04-29T09:45:41;16.80;99.90
983;DHT22;480;48.124;11.578;2023-04-29T09:48:11;16.70;99.90
983;DHT22;480;48.124;11.578;2023-04-29T09:50:40;16.50;99.90
983;DHT22;480;48.124;11.578;2023-04-29T09:53:08;16.50;99.90
983;DHT22;480;48.124;11.578;2023-04-29T09:55:35;16.60;99.90
983;DHT22;480;48.124;11.578;2023-04-29T09:58:03;16.60;99.90
983;DHT22;480;48.124;11.578;2023-04-29T10:00:31;16.80;99.90
983;DHT22;480;48.124;11.578;2023-04-29T10:03:00;17.10;99.90
983;DHT22;480;48.124;11.578;2023-04-29T10:05:29;17.40;99.90
983;DHT22;480;48.124;11.578;2023-04-29T10:07:57;17.60;99.90
983;DHT22;480;48.124;11.578;2023-04-29T10:10:26;17.80;99.90
983;DHT22;480;48.124;11.578;2023-04-29T10:12:54;18.10;99.90
983;DHT22;480;48.124;11.578;2023-04-29T10:15:26;18.60;99.90
983;DHT22;480;48.124;11.578;2023-04-29T10:17:59;19.00;99.90
983;DHT22;480;48.124;11.578;2023-04-29T10:20:30;18.90;99.90
983;DHT22;480;48.124;11.578;2023-04-29T10:22:58;18.60;99.90
983;DHT22;480;48.124;11.578;2023-04-29T10:25:25;18.50;99.90
983;DHT22;480;48.124;11.578;2023-04-29T10:27:54;18.40;99.90
983;DHT22;480;48.124;11.578;2023-04-29T10:30:24;18.30;99.90
983;DHT22;480;48.124;11.578;2023-04-29T10:32:52;18.20;99.90
983;DHT22;480;48.124;11.578;2023-04-29T10:35:20;18.10;99.90
983;DHT22;480;48.124;11.578;2023-04-29T10:37:52;18.00;99.90
983;DHT22;480;48.124;11.578;2023-04-29T10:40:26;18.00;99.90
983;DHT22;480;48.124;11.578;2023-04-29T10:42:54;17.80;99.90
983;DHT22;480;48.124;11.578;2023-04-29T10:45:23;17.70;99.90
983;DHT22;480;48.124;11.578;2023-04-29T10:48:10;17.70;99.90
983;DHT22;480;48.124;11.578;2023-04-29T10:53:27;18.40;99.90
983;DHT22;480;48.124;11.578;2023-04-29T10:55:57;18.80;99.90
983;DHT22;480;48.124;11.578;2023-04-29T10:58:35;19.20;99.90
983;DHT22;480;48.124;11.578;2023-04-29T11:01:03;19.60;99.90
983;DHT22;480;48.124;11.578;2023-04-29T11:03:45;19.30;99.90
983;DHT22;480;48.124;11.578;2023-04-29T11:06:13;19.00;99.90
983;DHT22;480;48.124;11.578;2023-04-29T11:08:41;18.60;99.90
983;DHT22;480;48.124;11.578;2023-04-29T11:11:09;18.40;99.90
983;DHT22;480;48.124;11.578;2023-04-29T11:13:39;18.30;99.90
983;DHT22;480;48.124;11.578;2023-04-29T11:16:07;18.50;99.90
983;DHT22;480;48.124;11.578;2023-04-29T11:18:35;18.60;99.90
983;DHT22;480;48.124;11.578;2023-04-29T11:21:12;18.80;99.90
983;DHT22;480;48.124;11.578;2023-04-29T11:23:41;19.00;99.90
983;DHT22;480;48.124;11.578;2023-04-29T11:26:09;19.20;99.90
983;DHT22;480;48.124;11.578;2023-04-29T11:28:37;19.30;99.90
983;DHT22;480;48.124;11.578;2023-04-29T11:31:06;19.50;99.90
983;DHT22;480;48.124;11.578;2023-04-29T11:33:39;19.60;99.90
983;DHT22;480;48.124;11.578;2023-04-29T11:36:14;19.30;99.90
983;DHT22;480;48.124;11.578;2023-04-29T11:38:43;19.20;99.90
983;DHT22;480;48.124;11.578;2023-04-29T11:41:13;19.20;99.90
983;DHT22;480;48.124;11.578;2023-04-29T11:43:45;19.20;99.90
983;DHT22;480;48.124;11.578;2023-04-29T11:46:12;18.80;99.90
983;DHT22;480;48.124;11.578;2023-04-29T11:48:45;18.50;99.90
983;DHT22;480;48.124;11.578;2023-04-29T11:51:19;18.50;99.90
983;DHT22;480;48.124;11.578;2023-04-29T11:53:48;18.60;99.90
983;DHT22;480;48.124;11.578;2023-04-29T11:56:23;18.70;99.90
983;DHT22;480;48.124;11.578;2023-04-29T11:58:53;19.10;99.90
983;DHT22;480;48.124;11.578;2023-04-29T12:01:22;19.20;99.90
983;DHT22;480;48.124;11.578;2023-04-29T12:03:56;19.00;99.90
983;DHT22;480;48.124;11.578;2023-04-29T12:06:27;19.20;99.90
983;DHT22;480;48.124;11.578;2023-04-29T12:08:58;19.50;99.90
983;DHT22;480;48.124;11.578;2023-04-29T12:11:25;19.70;99.90
983;DHT22;480;48.124;11.578;2023-04-29T12:13:56;19.80;99.90
983;DHT22;480;48.124;11.578;2023-04-29T12:16:26;20.00;99.90
983;DHT22;480;48.124;11.578;2023-04-29T12:18:55;20.60;99.90
983;DHT22;480;48.124;11.578;2023-04-29T12:21:23;20.90;99.90
983;DHT22;480;48.124;11.578;2023-04-29T12:23:53;21.20;99.90
983;DHT22;480;48.124;11.578;2023-04-29T12:26:41;21.10;99.90
983;DHT22;480;48.124;11.578;2023-04-29T12:29:13;20.90;99.90
983;DHT22;480;48.124;11.578;2023-04-29T12:31:40;20.80;99.90
983;DHT22;480;48.124;11.578;2023-04-29T12:34:14;20.70;99.90
983;DHT22;480;48.124;11.578;2023-04-29T12:36:43;20.40;99.90
983;DHT22;480;48.124;11.578;2023-04-29T12:39:10;20.10;99.90
983;DHT22;480;48.124;11.578;2023-04-29T12:41:41;20.00;99.90
983;DHT22;480;48.124;11.578;2023-04-29T12:44:08;20.20;99.90
983;DHT22;480;48.124;11.578;2023-04-29T12:46:37;20.30;99.90
983;DHT22;480;48.124;11.578;2023-04-29T12:49:05;20.30;99.90
983;DHT22;480;48.124;11.578;2023-04-29T12:51:33;20.10;99.90
983;DHT22;480;48.124;11.578;2023-04-29T12:54:01;20.00;99.90
983;DHT22;480;48.124;11.578;2023-04-29T12:56:29;20.30;99.90
983;DHT22;480;48.124;11.578;2023-04-29T12:59:04;20.20;99.90
983;DHT22;480;48.124;11.578;2023-04-29T13:01:31;19.90;99.90
983;DHT22;480;48.124;11.578;2023-04-29T13:03:58;19.80;99.90
983;DHT22;480;48.124;11.578;2023-04-29T13:06:25;19.70;99.90
983;DHT22;480;48.124;11.578;2023-04-29T13:08:53;19.70;99.90
983;DHT22;480;48.124;11.578;2023-04-29T13:11:20;19.80;99.90
983;DHT22;480;48.124;11.578;2023-04-29T13:13:47;20.00;99.90
983;DHT22;480;48.124;11.578;2023-04-29T13:16:15;20.20;99.90
983;DHT22;480;48.124;11.578;2023-04-29T13:18:42;20.10;99.90
983;DHT22;480;48.124;11.578;2023-04-29T13:21:09;20.00;99.90
983;DHT22;480;48.124;11.578;2023-04-29T13:23:36;20.10;99.90
983;DHT22;480;48.124;11.578;2023-04-29T13:26:04;20.10;99.90
983;DHT22;480;48.124;11.578;2023-04-29T13:28:32;19.90;99.90
983;DHT22;480;48.124;11.578;2023-04-29T13:30:59;20.10;99.90
983;DHT22;480;48.124;11.578;2023-04-29T13:33:27;20.20;99.90
983;DHT22;480;48.124;11.578;2023-04-29T13:35:54;20.00;99.90
983;DHT22;480;48.124;11.578;2023-04-29T13:38:21;20.10;99.90
983;DHT22;480;48.124;11.578;2023-04-29T13:40:48;20.40;99.90
983;DHT22;480;48.124;11.578;2023-04-29T13:43:16;20.30;99.90
983;DHT22;480;48.124;11.578;2023-04-29T13:45:43;20.60;99.90
983;DHT22;480;48.124;11.578;2023-04-29T13:48:10;20.70;99.90
983;DHT22;480;48.124;11.578;2023-04-29T13:50:38;21.00;99.90
983;DHT22;480;48.124;11.578;2023-04-29T13:53:06;21.10;99.90
983;DHT22;480;48.124;11.578;2023-04-29T13:55:33;21.30;99.90
983;DHT22;480;48.124;11.578;2023-04-29T13:58:00;21.40;99.90
983;DHT22;480;48.124;11.578;2023-04-29T14:00:27;21.60;99.90
983;DHT22;480;48.124;11.578;2023-04-29T14:02:55;21.60;99.90
983;DHT22;480;48.124;11.578;2023-04-29T14:05:22;21.60;99.90
983;DHT22;480;48.124;11.578;2023-04-29T14:07:50;21.60;99.90
983;DHT22;480;48.124;11.578;2023-04-29T14:10:17;21.60;99.90
983;DHT22;480;48.124;11.578;2023-04-29T14:12:44;21.40;99.90
983;DHT22;480;48.124;11.578;2023-04-29T14:15:11;21.60;99.90
983;DHT22;480;48.124;11.578;2023-04-29T14:17:38;21.60;99.90
983;DHT22;480;48.124;11.578;2023-04-29T14:20:06;21.50;99.90
983;DHT22;480;48.124;11.578;2023-04-29T14:22:33;21.70;99.90
983;DHT22;480;48.124;11.578;2023-04-29T14:25:02;21.40;99.90
983;DHT22;480;48.124;11.578;2023-04-29T14:27:29;21.40;99.90
983;DHT22;480;48.124;11.578;2023-04-29T14:29:56;21.20;99.90
983;DHT22;480;48.124;11.578;2023-04-29T14:32:23;21.60;99.90
983;DHT22;480;48.124;11.578;2023-04-29T14:34:49;21.70;99.90
983;DHT22;480;48.124;11.578;2023-04-29T14:37:16;21.50;99.90
983;DHT22;480;48.124;11.578;2023-04-29T14:39:43;21.60;99.90
983;DHT22;480;48.124;11.578;2023-04-29T14:42:11;21.80;99.90
983;DHT22;480;48.124;11.578;2023-04-29T14:44:39;21.80;99.90
983;DHT22;480;48.124;11.578;2023-04-29T14:47:06;21.70;99.90
983;DHT22;480;48.124;11.578;2023-04-29T14:49:34;21.50;99.90
983;DHT22;480;48.124;11.578;2023-04-29T14:52:00;21.40;99.90
983;DHT22;480;48.124;11.578;2023-04-29T14:54:28;21.10;99.90
983;DHT22;480;48.124;11.578;2023-04-29T14:56:55;21.10;99.90
983;DHT22;480;48.124;11.578;2023-04-29T14:59:23;20.90;99.90
983;DHT22;480;48.124;11.578;2023-04-29T15:01:53;21.40;99.90
983;DHT22;480;48.124;11.578;2023-04-29T15:04:20;21.70;99.90
983;DHT22;480;48.124;11.578;2023-04-29T15:06:48;22.10;99.90
983;DHT22;480;48.124;11.578;2023-04-29T15:09:15;21.90;99.90
983;DHT22;480;48.124;11.578;2023-04-29T15:11:42;21.80;99.90
983;DHT22;480;48.124;11.578;2023-04-29T15:14:09;21.90;99.90
983;DHT22;480;48.124;11.578;2023-04-29T15:16:37;21.90;99.90
983;DHT22;480;48.124;11.578;2023-04-29T15:19:04;22.00;99.90
983;DHT22;480;48.124;11.578;2023-04-29T15:21:31;21.60;99.90
983;DHT22;480;48.124;11.578;2023-04-29T15:23:59;21.30;99.90
983;DHT22;480;48.124;11.578;2023-04-29T15:26:27;21.10;99.90
983;DHT22;480;48.124;11.578;2023-04-29T15:28:54;20.80;99.90
983;DHT22;480;48.124;11.578;2023-04-29T15:31:21;20.50;99.90
983;DHT22;480;48.124;11.578;2023-04-29T15:33:52;20.30;99.90
983;DHT22;480;48.124;11.578;2023-04-29T15:36:27;19.90;99.90
983;DHT22;480;48.124;11.578;2023-04-29T15:38:54;19.60;99.90
983;DHT22;480;48.124;11.578;2023-04-29T15:41:21;19.60;99.90
983;DHT22;480;48.124;11.578;2023-04-29T15:43:50;20.00;99.90
983;DHT22;480;48.124;11.578;2023-04-29T15:46:18;20.10;99.90
983;DHT22;480;48.124;11.578;2023-04-29T15:48:45;20.30;99.90
983;DHT22;480;48.124;11.578;2023-04-29T15:51:13;20.20;99.90
983;DHT22;480;48.124;11.578;2023-04-29T15:53:40;20.10;99.90
983;DHT22;480;48.124;11.578;2023-04-29T15:56:08;19.90;99.90
983;DHT22;480;48.124;11.578;2023-04-29T15:58:35;19.60;99.90
983;DHT22;480;48.124;11.578;2023-04-29T16:01:02;19.30;99.90
983;DHT22;480;48.124;11.578;2023-04-29T16:03:30;19.00;99.90
983;DHT22;480;48.124;11.578;2023-04-29T16:05:57;19.00;99.90
983;DHT22;480;48.124;11.578;2023-04-29T16:08:26;18.80;99.90
983;DHT22;480;48.124;11.578;2023-04-29T16:10:52;18.70;99.90
983;DHT22;480;48.124;11.578;2023-04-29T16:13:19;18.70;99.90
983;DHT22;480;48.124;11.578;2023-04-29T16:15:46;18.40;99.90
983;DHT22;480;48.124;11.578;2023-04-29T16:18:13;18.10;99.90
983;DHT22;480;48.124;11.578;2023-04-29T16:20:42;18.00;99.90
983;DHT22;480;48.124;11.578;2023-04-29T16:23:09;17.90;99.90
983;DHT22;480;48.124;11.578;2023-04-29T16:25:39;17.90;99.90
983;DHT22;480;48.124;11.578;2023-04-29T16:28:06;18.00;99.90